TimeCST,TemperatureF,Dew PointF,Humidity,Sea Level PressureIn,VisibilityMPH,Wind Direction,Wind SpeedMPH,Gust SpeedMPH,PrecipitationIn,Events,Conditions,WindDirDegrees,DateUTC
12:35 AM,33.8,28.4,81,30.33,10.0,Calm,Calm,-,N/A,,Clear,0,2012-11-28 06:35:00
12:55 AM,33.8,30.2,87,30.34,10.0,Calm,Calm,-,N/A,,Clear,0,2012-11-28 06:55:00
1:15 AM,33.8,30.2,87,30.33,10.0,Calm,Calm,-,N/A,,Clear,0,2012-11-28 07:15:00
1:35 AM,33.8,30.2,87,30.33,10.0,Calm,Calm,-,N/A,,Clear,0,2012-11-28 07:35:00
1:55 AM,32.0,28.4,87,30.33,10.0,Calm,Calm,-,N/A,,Clear,0,2012-11-28 07:55:00
2:15 AM,32.0,30.2,93,30.33,10.0,Calm,Calm,-,N/A,,Clear,0,2012-11-28 08:15:00
2:35 AM,32.0,30.2,93,30.33,10.0,Calm,Calm,-,N/A,,Clear,0,2012-11-28 08:35:00
2:55 AM,32.0,30.2,93,30.33,10.0,Calm,Calm,-,N/A,,Clear,0,2012-11-28 08:55:00
3:15 AM,32.0,30.2,93,30.33,10.0,Calm,Calm,-,N/A,,Clear,0,2012-11-28 09:15:00
3:35 AM,32.0,30.2,93,30.32,10.0,Calm,Calm,-,N/A,,Clear,0,2012-11-28 09:35:00
3:55 AM,32.0,30.2,93,30.32,10.0,Calm,Calm,-,N/A,,Clear,0,2012-11-28 09:55:00
4:15 AM,32.0,30.2,93,30.33,10.0,Calm,Calm,-,N/A,,Clear,0,2012-11-28 10:15:00
4:35 AM,32.0,30.2,93,30.33,10.0,Calm,Calm,-,N/A,,Clear,0,2012-11-28 10:35:00
4:55 AM,32.0,30.2,93,30.33,10.0,Calm,Calm,-,N/A,,Clear,0,2012-11-28 10:55:00
5:15 AM,32.0,30.2,93,30.33,10.0,Calm,Calm,-,N/A,,Clear,0,2012-11-28 11:15:00
5:35 AM,30.2,30.2,100,30.34,10.0,Calm,Calm,-,N/A,,Clear,0,2012-11-28 11:35:00
5:55 AM,30.2,28.4,93,30.34,10.0,Calm,Calm,-,N/A,,Clear,0,2012-11-28 11:55:00
6:15 AM,28.4,26.6,93,30.34,10.0,Calm,Calm,-,N/A,,Clear,0,2012-11-28 12:15:00
6:35 AM,30.2,28.4,93,30.34,10.0,Calm,Calm,-,N/A,,Clear,0,2012-11-28 12:35:00
6:55 AM,30.2,30.2,100,30.35,10.0,Calm,Calm,-,N/A,,Clear,0,2012-11-28 12:55:00
7:15 AM,32.0,30.2,93,30.35,10.0,Calm,Calm,-,N/A,,Clear,0,2012-11-28 13:15:00
7:35 AM,32.0,32.0,100,30.36,10.0,Calm,Calm,-,N/A,,Clear,0,2012-11-28 13:35:00
7:55 AM,33.8,32.0,93,30.36,10.0,Calm,Calm,-,N/A,,Clear,0,2012-11-28 13:55:00
8:15 AM,35.6,33.8,93,30.37,10.0,Calm,Calm,-,N/A,,Clear,0,2012-11-28 14:15:00
8:35 AM,37.4,33.8,87,30.37,10.0,SE,6.9,-,N/A,,Clear,140,2012-11-28 14:35:00
8:55 AM,41.0,35.6,81,30.38,10.0,SE,6.9,-,N/A,,Clear,140,2012-11-28 14:55:00
9:15 AM,42.8,37.4,81,30.39,10.0,SE,9.2,-,N/A,,Clear,140,2012-11-28 15:15:00
9:35 AM,44.6,37.4,76,30.39,10.0,SSE,8.1,-,N/A,,Clear,150,2012-11-28 15:35:00
9:55 AM,46.4,37.4,71,30.39,10.0,SSE,9.2,-,N/A,,Clear,150,2012-11-28 15:55:00
10:15 AM,46.4,37.4,71,30.39,10.0,SSE,15.0,-,N/A,,Clear,160,2012-11-28 16:15:00
10:35 AM,48.2,37.4,66,30.39,10.0,SSE,12.7,-,N/A,,Clear,160,2012-11-28 16:35:00
10:55 AM,51.8,39.2,62,30.38,10.0,South,12.7,-,N/A,,Clear,170,2012-11-28 16:55:00
11:15 AM,51.8,39.2,62,30.37,10.0,SSE,16.1,19.6,N/A,,Clear,150,2012-11-28 17:15:00
11:35 AM,53.6,39.2,58,30.36,10.0,SSE,16.1,-,N/A,,Clear,150,2012-11-28 17:35:00
11:55 AM,53.6,41.0,62,30.35,10.0,SSE,12.7,-,N/A,,Clear,150,2012-11-28 17:55:00
12:15 PM,55.4,41.0,58,30.34,10.0,SSE,13.8,-,N/A,,Clear,160,2012-11-28 18:15:00
12:35 PM,55.4,41.0,58,30.32,10.0,SSE,12.7,-,N/A,,Clear,160,2012-11-28 18:35:00
12:55 PM,59.0,41.0,51,30.31,10.0,SSE,12.7,17.3,N/A,,Clear,150,2012-11-28 18:55:00
1:15 PM,59.0,41.0,51,30.30,10.0,SSE,15.0,-,N/A,,Clear,150,2012-11-28 19:15:00
1:35 PM,59.0,41.0,51,30.29,10.0,SSE,16.1,19.6,N/A,,Clear,150,2012-11-28 19:35:00
1:55 PM,59.0,41.0,51,30.27,10.0,SSE,16.1,20.7,N/A,,Clear,160,2012-11-28 19:55:00
2:15 PM,60.8,41.0,48,30.26,10.0,SE,17.3,23.0,N/A,,Clear,140,2012-11-28 20:15:00
2:35 PM,60.8,41.0,48,30.25,10.0,South,15.0,-,N/A,,Clear,170,2012-11-28 20:35:00
2:55 PM,60.8,41.0,48,30.25,10.0,SSE,16.1,-,N/A,,Clear,160,2012-11-28 20:55:00
3:15 PM,60.8,41.0,48,30.24,10.0,SSE,17.3,21.9,N/A,,Clear,150,2012-11-28 21:15:00
3:35 PM,60.8,41.0,48,30.24,10.0,South,15.0,19.6,N/A,,Clear,170,2012-11-28 21:35:00
3:55 PM,60.8,41.0,48,30.24,10.0,SSE,15.0,-,N/A,,Clear,160,2012-11-28 21:55:00
4:15 PM,59.0,41.0,51,30.23,10.0,SSE,12.7,18.4,N/A,,Clear,160,2012-11-28 22:15:00
4:35 PM,59.0,41.0,51,30.23,10.0,SSE,11.5,-,N/A,,Clear,150,2012-11-28 22:35:00
4:55 PM,57.2,41.0,55,30.22,10.0,SSE,10.4,-,N/A,,Clear,150,2012-11-28 22:55:00
5:15 PM,55.4,41.0,58,30.23,10.0,SSE,10.4,-,N/A,,Clear,160,2012-11-28 23:15:00
5:35 PM,55.4,41.0,58,30.22,10.0,SSE,12.7,-,N/A,,Clear,150,2012-11-28 23:35:00
5:55 PM,55.4,41.0,58,30.22,10.0,SSE,10.4,-,N/A,,Clear,160,2012-11-28 23:55:00
6:15 PM,53.6,41.0,62,30.22,10.0,SSE,12.7,-,N/A,,Clear,150,2012-11-29 00:15:00
6:35 PM,53.6,41.0,62,30.22,10.0,SSE,11.5,-,N/A,,Clear,160,2012-11-29 00:35:00
6:55 PM,51.8,41.0,67,30.23,10.0,SSE,11.5,-,N/A,,Clear,160,2012-11-29 00:55:00
7:15 PM,51.8,41.0,67,30.23,10.0,SSE,11.5,-,N/A,,Clear,160,2012-11-29 01:15:00
7:35 PM,51.8,41.0,67,30.22,10.0,SSE,12.7,-,N/A,,Clear,160,2012-11-29 01:35:00
7:55 PM,50.0,39.2,66,30.21,10.0,SSE,13.8,17.3,N/A,,Clear,160,2012-11-29 01:55:00
8:15 PM,51.8,39.2,62,30.21,10.0,SSE,16.1,-,N/A,,Clear,160,2012-11-29 02:15:00
8:35 PM,51.8,39.2,62,30.21,10.0,SSE,13.8,-,N/A,,Clear,160,2012-11-29 02:35:00
8:55 PM,51.8,37.4,58,30.20,10.0,SSE,12.7,-,N/A,,Clear,160,2012-11-29 02:55:00
9:15 PM,50.0,37.4,62,30.20,10.0,SSE,13.8,-,N/A,,Clear,160,2012-11-29 03:15:00
9:35 PM,50.0,37.4,62,30.20,10.0,South,13.8,-,N/A,,Clear,170,2012-11-29 03:35:00
9:55 PM,48.2,37.4,66,30.20,10.0,SSE,11.5,17.3,N/A,,Clear,160,2012-11-29 03:55:00
10:15 PM,48.2,37.4,66,30.19,10.0,SSE,13.8,-,N/A,,Clear,160,2012-11-29 04:15:00
10:35 PM,48.2,37.4,66,30.19,10.0,South,12.7,-,N/A,,Clear,170,2012-11-29 04:35:00
10:55 PM,48.2,37.4,66,30.19,10.0,South,13.8,19.6,N/A,,Clear,170,2012-11-29 04:55:00
11:15 PM,48.2,37.4,66,30.19,10.0,SSE,15.0,19.6,N/A,,Clear,160,2012-11-29 05:15:00
11:35 PM,48.2,37.4,66,30.19,10.0,SSE,15.0,19.6,N/A,,Clear,160,2012-11-29 05:35:00
11:55 PM,48.2,37.4,66,30.19,10.0,SSE,13.8,-,N/A,,Clear,160,2012-11-29 05:55:00